Главная страница
METAR-TAF:

METAR-TAF

Аэропорты :

Куусамо, Финляндия

широта: 65-58N, долгота: 029-11E, высота над уровнем моря: 262 м

Текущие метеонаблюдения

Эта сводка был подготовлена 24 минут назад, в 02:20 UTC
Ветер 7 Узел от западный
Температура 8°C
Влажность 81%
Давление 997 hPa
Видимость 10 км и более
Нет облачности ниже 1500 м, и нет кучево-дождевой облачности

METAR: EFKS 210220Z AUTO 27007KT CAVOK 08/05 Q0997

Время: 05:44 (02:44 UTC)

Прогноз

Эта сводка был подготовлена 18 часа и 23 минут назад, в 08:21 UTC
Прогноз действительный с 20-го 09 UTC до 20-го 13 UTC
Ветер 10 Узел от западный
Видимость: 8000 м
Сплошная облачность на высоте 600 фута
небольшой дождь
изменения
С 20-го 09 UTC до 20-го 11 UTC
Рассеянная облачность на высоте 1000 фута

TAF: EFKS 200821Z 2009/2013 28010KT 8000 -RA OVC006 BECMG 2009/2011 BKN010

Метеонаблюдения и прогнозы для более 4000 аэропортов (сводки METAR и TAF).

Имеющиеся станции представлены на карте желтыми и красными точками.

Чтобы увидеть название станции, наведите на нее мышь.

Затем щелкните, чтобы увидеть метеонаблюдения и метеопрогнозы.

Управление картой: чтобы увеличить масштаб, щелкните зеленые кнопки с черным крестиком; чтобы уменьшить масштаб, щелкните зеленую кнопку с тире; для просмотра соседних карт щелкайте зеленые стрелки.


METAR-TAF: